Time;durP1;ratioP1;P1;durP2;ratioP2;P2;SDS_P1;SDS_P2;PMS_P1;PMS_P2;Temp;Humidity;BMP_temperature;BMP_pressure;BME280_temperature;BME280_humidity;BME280_pressure;Samples;Min_cycle;Max_cycle;Signal;HPM_P1;HPM_P2
2022/11/02 00:00:35;;;;;;;9.80;6.00;;;15.10;61.20;;;;;;5044205;28;20442;-54
2022/11/02 00:03:01;;;;;;;10.03;5.43;;;15.00;61.20;;;;;;5040024;28;20462;-55
2022/11/02 00:05:27;;;;;;;6.23;4.90;;;14.90;61.70;;;;;;5046016;28;20447;-55
2022/11/02 00:07:54;;;;;;;8.67;6.37;;;14.70;62.70;;;;;;5040284;28;20490;-55
2022/11/02 00:10:21;;;;;;;6.70;5.13;;;14.80;62.80;;;;;;5048269;28;20192;-54
2022/11/02 00:12:47;;;;;;;5.60;4.63;;;14.80;62.50;;;;;;5047437;28;20439;-54
2022/11/02 00:15:13;;;;;;;8.90;5.30;;;14.80;62.10;;;;;;5049912;28;20814;-55
2022/11/02 00:17:41;;;;;;;5.17;4.77;;;14.80;62.20;;;;;;5044458;28;20442;-52
2022/11/02 00:20:08;;;;;;;7.60;5.00;;;14.70;62.30;;;;;;5044795;28;20239;-55
2022/11/02 00:22:33;;;;;;;7.67;5.00;;;14.50;62.90;;;;;;5048687;28;20443;-53
2022/11/02 00:25:05;;;;;;;5.53;4.27;;;14.50;63.10;;;;;;5047094;28;20486;-52
2022/11/02 00:27:31;;;;;;;6.73;5.57;;;14.40;63.50;;;;;;5047616;28;21654;-52
2022/11/02 00:29:58;;;;;;;8.47;5.53;;;14.50;63.50;;;;;;5043758;28;20447;-52
2022/11/02 00:32:24;;;;;;;8.47;5.67;;;14.50;63.20;;;;;;5044732;28;20431;-53
2022/11/02 00:34:50;;;;;;;10.00;5.63;;;14.50;63.00;;;;;;5043423;28;20488;-52
2022/11/02 00:37:16;;;;;;;7.63;5.43;;;14.60;62.80;;;;;;5045659;28;20443;-53
2022/11/02 00:39:41;;;;;;;6.30;5.47;;;14.60;62.70;;;;;;5047675;28;20591;-55
2022/11/02 00:42:07;;;;;;;14.33;4.43;;;14.50;62.70;;;;;;5048788;28;20548;-55
2022/11/02 00:44:32;;;;;;;5.67;4.73;;;14.60;62.60;;;;;;5047055;28;20189;-54
2022/11/02 00:46:58;;;;;;;8.37;5.20;;;14.50;62.80;;;;;;5046565;28;20223;-52
2022/11/02 00:49:24;;;;;;;10.37;4.83;;;14.50;63.00;;;;;;5047536;28;20193;-53
2022/11/02 00:51:49;;;;;;;6.67;4.70;;;14.50;62.70;;;;;;5047750;28;20606;-54
2022/11/02 00:54:15;;;;;;;5.90;4.57;;;14.60;62.30;;;;;;5046140;28;20192;-53
2022/11/02 00:56:40;;;;;;;7.93;5.30;;;14.60;61.90;;;;;;5044091;28;20252;-54
2022/11/02 00:59:06;;;;;;;10.17;4.33;;;14.70;61.80;;;;;;5039210;28;20189;-50
2022/11/02 01:01:32;;;;;;;4.60;4.20;;;14.70;61.50;;;;;;5037580;28;20270;-55
2022/11/02 01:03:57;;;;;;;5.70;4.30;;;14.70;61.30;;;;;;5041652;28;20201;-55
2022/11/02 01:06:23;;;;;;;7.47;4.90;;;14.70;61.20;;;;;;5038910;28;20204;-54
2022/11/02 01:08:49;;;;;;;5.70;5.03;;;14.70;61.40;;;;;;5047645;28;20264;-53
2022/11/02 01:11:18;;;;;;;6.77;3.97;;;14.60;61.20;;;;;;5046228;28;20188;-55
2022/11/02 01:13:44;;;;;;;4.47;4.07;;;14.60;61.20;;;;;;5040832;28;20199;-55
2022/11/02 01:16:10;;;;;;;5.93;3.73;;;14.60;61.30;;;;;;5048528;28;20439;-54
2022/11/02 01:18:36;;;;;;;4.73;3.37;;;14.60;61.20;;;;;;5034529;28;20435;-55
2022/11/02 01:21:02;;;;;;;5.73;3.90;;;14.70;61.00;;;;;;5046819;28;20465;-54
2022/11/02 01:23:32;;;;;;;4.07;3.67;;;14.70;60.90;;;;;;5044634;28;20648;-55
2022/11/02 01:26:00;;;;;;;6.03;3.40;;;14.70;60.80;;;;;;5045622;28;20236;-53
2022/11/02 01:28:26;;;;;;;4.37;3.63;;;14.80;60.70;;;;;;5044922;28;20479;-54
2022/11/02 01:30:52;;;;;;;4.43;3.13;;;14.80;60.60;;;;;;5057056;28;20476;-55
2022/11/02 01:33:17;;;;;;;4.73;3.20;;;14.80;60.40;;;;;;5046180;28;20279;-54
2022/11/02 01:35:43;;;;;;;6.60;3.73;;;14.70;60.30;;;;;;5041524;28;20192;-54
2022/11/02 01:38:08;;;;;;;3.60;2.87;;;14.80;60.40;;;;;;5045391;28;20204;-54
2022/11/02 01:40:38;;;;;;;7.53;3.50;;;14.70;60.20;;;;;;5047453;28;20189;-55
2022/11/02 01:43:22;;;;;;;3.30;2.53;;;14.70;60.60;;;;;;5040391;28;20206;-55
2022/11/02 01:45:53;;;;;;;5.30;3.30;;;14.70;60.70;;;;;;5040229;28;20453;-54
2022/11/02 01:48:35;;;;;;;4.20;2.90;;;14.70;60.80;;;;;;5035063;28;20502;-55
2022/11/02 01:51:04;;;;;;;3.80;2.90;;;14.70;61.70;;;;;;5037175;28;20500;-56
2022/11/02 01:53:32;;;;;;;3.27;2.53;;;14.70;61.50;;;;;;5038932;28;20520;-55
2022/11/02 01:55:58;;;;;;;3.50;3.20;;;14.80;61.60;;;;;;5041490;28;20454;-54
2022/11/02 01:58:26;;;;;;;4.70;3.20;;;14.80;62.00;;;;;;5038876;28;22013;-54
2022/11/02 02:00:53;;;;;;;5.43;3.67;;;14.70;61.90;;;;;;5043138;28;20980;-54
2022/11/02 02:03:20;;;;;;;3.07;2.60;;;14.50;63.00;;;;;;5040944;28;20878;-54
2022/11/02 02:05:55;;;;;;;7.20;2.97;;;14.50;63.50;;;;;;5044879;28;20446;-55
2022/11/02 02:08:23;;;;;;;3.87;2.43;;;14.60;63.70;;;;;;5044189;28;20985;-55
2022/11/02 02:10:49;;;;;;;5.07;2.63;;;14.60;64.10;;;;;;5044289;28;20443;-55
2022/11/02 02:13:16;;;;;;;6.90;2.80;;;14.60;63.90;;;;;;5046770;28;20501;-55
2022/11/02 02:16:12;;;;;;;3.70;2.67;;;14.70;63.30;;;;;;5046125;28;20569;-54
2022/11/02 02:19:08;;;;;;;2.67;2.43;;;14.80;62.90;;;;;;5044218;28;20442;-54
2022/11/02 02:22:16;;;;;;;2.43;2.20;;;14.90;62.40;;;;;;5039641;28;20453;-55
2022/11/02 02:25:06;;;;;;;5.33;3.20;;;14.80;62.30;;;;;;5037811;28;20497;-54
2022/11/02 02:28:11;;;;;;;3.10;2.43;;;14.30;64.40;;;;;;5037643;28;20479;-55
2022/11/02 02:30:45;;;;;;;3.40;2.80;;;14.10;65.60;;;;;;5043079;28;20466;-55
2022/11/02 02:33:28;;;;;;;2.90;2.60;;;14.10;65.50;;;;;;5040367;28;20822;-55
2022/11/02 02:36:09;;;;;;;3.90;3.03;;;14.30;65.10;;;;;;5049201;28;20443;-54
2022/11/02 02:38:39;;;;;;;4.10;2.40;;;14.30;64.60;;;;;;5040942;28;20455;-54
2022/11/02 02:41:21;;;;;;;4.00;2.80;;;14.30;64.80;;;;;;5050117;28;20503;-55
2022/11/02 02:43:52;;;;;;;3.50;2.87;;;14.20;64.30;;;;;;5041047;28;20447;-56
2022/11/02 02:46:30;;;;;;;3.03;2.73;;;14.40;64.10;;;;;;5045434;28;20817;-54
2022/11/02 02:48:57;;;;;;;5.50;2.70;;;14.30;64.10;;;;;;5046157;28;20479;-54
2022/11/02 02:51:29;;;;;;;4.03;2.70;;;14.40;64.00;;;;;;5049672;28;20465;-57
2022/11/02 02:54:09;;;;;;;3.93;3.03;;;14.30;64.10;;;;;;5046928;28;20478;-54
2022/11/02 02:56:39;;;;;;;4.40;2.37;;;14.50;63.80;;;;;;5049581;28;21272;-54
2022/11/02 02:59:11;;;;;;;2.77;2.53;;;14.50;64.00;;;;;;5042822;28;20486;-55
2022/11/02 03:01:41;;;;;;;4.37;2.60;;;14.60;63.90;;;;;;5046315;28;20450;-55
2022/11/02 03:04:10;;;;;;;4.20;2.60;;;14.70;63.40;;;;;;5048221;28;20526;-55
2022/11/02 03:06:36;;;;;;;5.50;2.87;;;14.60;62.80;;;;;;5047859;28;20844;-55
2022/11/02 03:09:32;;;;;;;6.50;2.73;;;14.50;63.90;;;;;;5051396;28;20443;-55
2022/11/02 03:12:42;;;;;;;5.03;2.20;;;14.40;64.50;;;;;;5041048;28;20196;-55
2022/11/02 03:15:28;;;;;;;3.53;2.43;;;14.30;65.50;;;;;;5045056;28;20442;-55
2022/11/02 03:18:15;;;;;;;3.93;2.50;;;14.20;65.70;;;;;;5045185;28;20439;-54
2022/11/02 03:21:08;;;;;;;5.10;2.40;;;14.30;65.90;;;;;;5045608;28;20541;-55
2022/11/02 03:23:51;;;;;;;2.63;2.20;;;14.50;65.30;;;;;;5044335;28;20459;-56
2022/11/02 03:26:38;;;;;;;4.40;2.60;;;14.50;65.10;;;;;;5039796;28;20467;-54
2022/11/02 03:29:11;;;;;;;3.13;1.97;;;14.50;65.00;;;;;;5036099;28;21252;-54
2022/11/02 03:31:59;;;;;;;4.07;2.27;;;14.60;64.70;;;;;;5044288;28;20428;-55
2022/11/02 03:34:45;;;;;;;3.17;2.87;;;14.70;63.30;;;;;;5043977;28;20522;-54
2022/11/02 03:37:31;;;;;;;6.23;2.80;;;14.80;62.60;;;;;;5046673;28;21168;-55
2022/11/02 03:40:09;;;;;;;3.30;3.07;;;14.90;61.70;;;;;;5044880;28;20450;-56
2022/11/02 03:42:35;;;;;;;2.60;2.30;;;14.90;61.30;;;;;;5039605;28;20471;-56
2022/11/02 03:45:10;;;;;;;3.10;2.63;;;14.90;61.20;;;;;;5044966;28;20454;-54
2022/11/02 03:47:37;;;;;;;2.73;2.53;;;15.00;61.20;;;;;;5043748;28;20505;-55
2022/11/02 03:50:06;;;;;;;3.13;2.83;;;15.00;61.10;;;;;;5048763;28;20808;-55
2022/11/02 03:52:34;;;;;;;3.07;2.77;;;15.00;61.20;;;;;;5047249;28;20811;-56
2022/11/02 03:55:08;;;;;;;5.47;3.30;;;15.00;61.20;;;;;;5047993;28;20467;-55
2022/11/02 03:57:44;;;;;;;7.90;3.30;;;15.00;61.20;;;;;;5046615;28;20811;-55
2022/11/02 04:00:21;;;;;;;3.53;3.23;;;15.00;61.10;;;;;;5047776;28;20439;-53
2022/11/02 04:02:50;;;;;;;2.87;2.60;;;15.00;60.70;;;;;;5047066;28;20526;-55
2022/11/02 04:05:16;;;;;;;3.07;2.87;;;15.00;60.60;;;;;;5048320;28;20463;-54
2022/11/02 04:10:29;;;;;;;2.80;2.60;;;15.00;60.70;;;;;;5048396;28;20450;-55
2022/11/02 04:15:39;;;;;;;4.50;2.30;;;14.90;61.00;;;;;;5046768;28;20207;-55
2022/11/02 04:20:50;;;;;;;3.33;2.63;;;15.00;61.10;;;;;;5047559;28;20215;-54
2022/11/02 04:26:00;;;;;;;2.50;2.30;;;15.00;61.30;;;;;;5043671;28;20524;-55
2022/11/02 04:28:26;;;;;;;4.00;2.00;;;15.00;61.40;;;;;;5044410;28;20483;-55
2022/11/02 04:30:51;;;;;;;9.63;2.40;;;15.00;61.70;;;;;;5049568;28;20193;-55
2022/11/02 04:33:32;;;;;;;4.73;2.40;;;15.00;61.70;;;;;;5039575;28;20188;-52
2022/11/02 04:36:05;;;;;;;6.33;2.27;;;15.00;62.10;;;;;;5038196;28;20283;-55
2022/11/02 04:38:41;;;;;;;3.10;2.27;;;15.10;61.70;;;;;;5046140;28;20901;-55
2022/11/02 04:43:52;;;;;;;5.03;2.60;;;15.20;61.10;;;;;;5045732;28;20928;-55
2022/11/02 04:46:18;;;;;;;2.13;1.93;;;15.20;60.90;;;;;;5043550;28;20477;-56
2022/11/02 04:48:43;;;;;;;4.20;2.70;;;15.20;60.60;;;;;;5043021;28;20580;-55
2022/11/02 04:51:09;;;;;;;2.77;2.57;;;15.20;60.40;;;;;;5043891;28;20454;-55
2022/11/02 04:53:35;;;;;;;4.43;2.87;;;15.20;60.20;;;;;;5045011;28;20200;-55
2022/11/02 04:56:00;;;;;;;9.83;6.83;;;15.20;59.90;;;;;;5046189;28;20202;-53
2022/11/02 04:58:26;;;;;;;6.20;4.90;;;15.20;59.80;;;;;;5042006;28;20188;-55
2022/11/02 05:00:51;;;;;;;6.13;3.83;;;15.20;59.70;;;;;;5042897;28;20278;-56
2022/11/02 05:03:17;;;;;;;4.83;2.90;;;15.20;59.70;;;;;;5030902;28;20796;-55
2022/11/02 05:05:43;;;;;;;4.60;3.10;;;15.20;59.70;;;;;;5047499;28;20692;-55
2022/11/02 05:08:08;;;;;;;4.70;2.50;;;15.20;59.60;;;;;;5045403;28;20232;-55
2022/11/02 05:10:34;;;;;;;4.70;2.67;;;15.10;59.40;;;;;;5049776;28;20750;-54
2022/11/02 05:13:01;;;;;;;4.53;2.50;;;15.10;59.20;;;;;;5040431;28;20239;-54
2022/11/02 05:15:26;;;;;;;3.77;2.33;;;15.00;59.10;;;;;;5046136;28;20255;-52
2022/11/02 05:17:52;;;;;;;5.30;2.40;;;15.00;59.10;;;;;;5044693;28;20457;-55
2022/11/02 05:20:18;;;;;;;5.33;2.80;;;15.00;59.10;;;;;;5047083;28;20201;-55
2022/11/02 05:22:43;;;;;;;3.57;2.57;;;15.00;59.10;;;;;;5044572;28;20644;-55
2022/11/02 05:25:10;;;;;;;4.47;3.00;;;14.90;59.20;;;;;;5041327;28;20228;-56
2022/11/02 05:27:36;;;;;;;5.83;2.53;;;14.90;59.50;;;;;;5042962;28;20220;-55
2022/11/02 05:30:04;;;;;;;4.10;2.07;;;14.80;60.20;;;;;;5045100;28;20443;-55
2022/11/02 05:32:30;;;;;;;2.37;2.17;;;14.80;59.70;;;;;;5047481;28;20443;-55
2022/11/02 05:34:55;;;;;;;8.47;3.07;;;14.80;59.60;;;;;;5040825;28;20462;-55
2022/11/02 05:37:22;;;;;;;4.47;2.40;;;14.80;59.60;;;;;;5039328;28;20207;-55
2022/11/02 05:39:47;;;;;;;3.40;2.33;;;14.40;60.90;;;;;;5045918;28;20674;-55
2022/11/02 05:42:13;;;;;;;6.70;1.97;;;14.40;61.40;;;;;;5046830;28;20508;-55
2022/11/02 05:44:38;;;;;;;5.07;2.90;;;14.40;61.80;;;;;;5044334;28;20189;-54
2022/11/02 05:47:05;;;;;;;5.77;2.20;;;14.40;61.60;;;;;;5036850;28;20734;-54
2022/11/02 05:49:30;;;;;;;6.07;2.57;;;14.40;61.40;;;;;;5037920;28;20197;-55
2022/11/02 05:51:56;;;;;;;3.60;2.33;;;14.60;61.10;;;;;;5048342;28;20447;-54
2022/11/02 05:54:22;;;;;;;2.43;1.90;;;14.60;60.70;;;;;;5041573;28;20552;-56
2022/11/02 05:56:47;;;;;;;2.70;2.27;;;14.60;60.90;;;;;;5038694;28;20313;-56
2022/11/02 05:59:13;;;;;;;3.90;2.23;;;14.60;60.90;;;;;;5044534;28;20197;-56
2022/11/02 06:01:39;;;;;;;6.47;2.33;;;14.70;60.90;;;;;;5046719;28;20238;-56
2022/11/02 06:04:05;;;;;;;9.60;2.53;;;14.90;78.90;;;;;;5047502;28;22234;-56
2022/11/02 06:06:30;;;;;;;8.97;2.20;;;15.30;73.70;;;;;;5041451;28;20189;-56
2022/11/02 06:08:56;;;;;;;4.27;2.00;;;15.70;68.70;;;;;;5043316;28;20474;-57
2022/11/02 06:11:22;;;;;;;4.90;2.27;;;16.00;65.20;;;;;;5044566;28;20283;-56
2022/11/02 06:13:49;;;;;;;2.30;2.10;;;16.40;62.80;;;;;;5040963;28;20197;-56
2022/11/02 06:16:16;;;;;;;8.20;2.50;;;16.70;60.90;;;;;;5041757;28;20458;-57
2022/11/02 06:18:42;;;;;;;2.30;2.10;;;16.80;59.50;;;;;;5044398;28;20444;-56
2022/11/02 06:21:08;;;;;;;5.03;2.00;;;17.00;58.50;;;;;;5043007;28;20467;-57
2022/11/02 06:23:33;;;;;;;5.20;2.00;;;17.10;58.00;;;;;;5050348;28;20498;-56
2022/11/02 06:26:00;;;;;;;4.73;2.07;;;17.20;57.70;;;;;;5045512;28;20246;-57
2022/11/02 06:28:26;;;;;;;2.13;1.70;;;17.40;57.30;;;;;;5052253;28;20547;-57
2022/11/02 06:30:52;;;;;;;8.70;2.47;;;17.50;57.00;;;;;;5049918;28;20806;-57
2022/11/02 06:33:19;;;;;;;2.80;2.30;;;17.50;56.80;;;;;;5041573;28;20540;-56
2022/11/02 06:35:46;;;;;;;3.40;2.03;;;17.60;56.20;;;;;;5053084;28;20793;-57
2022/11/02 06:38:12;;;;;;;4.00;2.10;;;17.60;55.80;;;;;;5045002;28;20439;-57
2022/11/02 06:40:38;;;;;;;13.63;2.23;;;17.70;56.20;;;;;;5048118;28;20489;-56
2022/11/02 06:43:04;;;;;;;5.07;2.00;;;17.90;57.00;;;;;;5047934;28;20203;-56
2022/11/02 06:45:29;;;;;;;4.30;1.93;;;18.00;55.10;;;;;;5051169;28;20480;-56
2022/11/02 06:47:55;;;;;;;6.80;1.90;;;18.20;54.50;;;;;;5036815;28;20235;-56
2022/11/02 06:50:23;;;;;;;4.07;2.50;;;18.30;54.10;;;;;;5047768;28;20201;-56
2022/11/02 06:52:48;;;;;;;3.90;2.17;;;18.30;53.90;;;;;;5045618;28;20212;-56
2022/11/02 06:55:15;;;;;;;3.80;2.30;;;18.20;54.00;;;;;;5044257;28;20435;-56
2022/11/02 06:57:43;;;;;;;7.83;2.77;;;18.20;53.80;;;;;;5049329;28;20227;-56
2022/11/02 07:00:16;;;;;;;6.30;2.40;;;18.10;53.80;;;;;;5048202;28;20435;-55
2022/11/02 07:02:43;;;;;;;5.47;2.40;;;18.00;53.90;;;;;;5049216;28;20517;-56
2022/11/02 07:05:08;;;;;;;3.77;2.10;;;17.80;54.40;;;;;;5045332;28;20495;-55
2022/11/02 07:07:34;;;;;;;4.80;2.73;;;17.60;55.00;;;;;;5049194;28;20847;-55
2022/11/02 07:09:59;;;;;;;4.00;2.07;;;17.50;55.20;;;;;;5045341;28;20636;-55
2022/11/02 07:12:25;;;;;;;3.37;2.40;;;17.40;55.60;;;;;;5052099;28;20255;-54
2022/11/02 07:14:51;;;;;;;3.57;2.27;;;17.40;55.80;;;;;;5039916;28;20201;-56
2022/11/02 07:17:16;;;;;;;4.97;2.67;;;17.30;56.30;;;;;;5042059;28;20197;-56
2022/11/02 07:19:42;;;;;;;4.70;1.93;;;17.20;56.90;;;;;;5033419;28;20193;-55
2022/11/02 07:22:07;;;;;;;8.80;2.67;;;17.20;57.10;;;;;;5042901;28;20197;-55
2022/11/02 07:24:33;;;;;;;5.00;2.97;;;17.20;57.20;;;;;;5052565;28;20611;-56
2022/11/02 07:26:59;;;;;;;3.60;2.00;;;17.30;57.30;;;;;;5052501;28;20210;-56
2022/11/02 07:29:24;;;;;;;5.80;2.33;;;17.30;57.30;;;;;;5053442;28;20200;-57
2022/11/02 07:31:50;;;;;;;7.40;2.50;;;17.40;57.70;;;;;;5053861;28;20652;-55
2022/11/02 07:34:16;;;;;;;6.10;2.43;;;17.40;58.00;;;;;;5052629;28;20220;-55
2022/11/02 07:36:41;;;;;;;3.13;2.10;;;17.40;59.00;;;;;;5053429;28;20208;-55
2022/11/02 07:39:08;;;;;;;5.03;2.30;;;17.40;59.40;;;;;;5052916;28;20219;-55
2022/11/02 07:41:34;;;;;;;5.23;2.27;;;17.40;59.50;;;;;;5053604;28;20201;-54
2022/11/02 07:44:00;;;;;;;4.03;2.00;;;17.50;59.60;;;;;;5051025;28;20937;-55
2022/11/02 07:46:25;;;;;;;5.27;2.10;;;17.50;59.60;;;;;;5053628;28;20423;-55
2022/11/02 07:48:51;;;;;;;5.43;3.03;;;17.50;59.50;;;;;;5052573;28;20242;-55
2022/11/02 07:51:17;;;;;;;4.80;2.30;;;17.50;59.50;;;;;;5053416;28;20270;-55
2022/11/02 07:53:42;;;;;;;7.33;2.70;;;17.60;59.60;;;;;;5052018;28;20193;-55
2022/11/02 07:56:09;;;;;;;5.10;2.90;;;17.60;59.70;;;;;;5053187;28;20640;-55
2022/11/02 07:58:35;;;;;;;4.80;2.50;;;17.60;59.70;;;;;;5052666;28;20201;-55
2022/11/02 08:01:00;;;;;;;4.33;2.50;;;17.60;59.50;;;;;;5053165;28;20434;-55
2022/11/02 08:03:27;;;;;;;6.43;3.07;;;17.60;59.40;;;;;;5051903;28;20230;-55
2022/11/02 08:05:53;;;;;;;8.77;3.63;;;17.70;59.40;;;;;;5053441;28;20193;-55
2022/11/02 08:08:21;;;;;;;10.63;5.10;;;17.60;59.40;;;;;;5052499;28;20479;-54
2022/11/02 08:10:48;;;;;;;9.87;4.43;;;17.60;59.70;;;;;;5051298;28;20205;-55
2022/11/02 08:13:20;;;;;;;8.97;4.33;;;17.60;59.80;;;;;;5051644;28;20427;-55
2022/11/02 08:15:50;;;;;;;9.87;4.00;;;17.70;60.10;;;;;;5052780;28;20435;-55
2022/11/02 08:18:23;;;;;;;6.93;3.33;;;17.70;60.00;;;;;;5034293;28;20463;-54
2022/11/02 08:20:49;;;;;;;12.23;3.30;;;17.70;60.00;;;;;;5044843;28;20808;-55
2022/11/02 08:23:17;;;;;;;6.33;3.60;;;17.70;60.20;;;;;;5051763;28;20926;-54
2022/11/02 08:25:44;;;;;;;6.23;3.13;;;17.80;60.20;;;;;;5052308;28;20985;-53
2022/11/02 08:28:22;;;;;;;6.60;3.50;;;17.90;59.90;;;;;;5051884;28;20530;-55
2022/11/02 08:30:47;;;;;;;7.37;3.40;;;18.00;59.90;;;;;;5052778;28;20419;-54
2022/11/02 08:33:14;;;;;;;8.13;3.40;;;18.10;60.10;;;;;;5051651;28;20756;-55
2022/11/02 08:35:42;;;;;;;8.43;2.83;;;18.10;60.00;;;;;;5052127;28;20680;-55
2022/11/02 08:38:08;;;;;;;6.13;2.63;;;18.30;60.10;;;;;;5049945;28;20419;-54
2022/11/02 08:40:35;;;;;;;6.00;3.17;;;18.40;59.80;;;;;;5052284;28;20459;-54
2022/11/02 08:43:10;;;;;;;7.90;2.70;;;18.40;59.40;;;;;;5051391;28;20438;-55
2022/11/02 08:45:37;;;;;;;5.83;3.13;;;18.50;58.40;;;;;;5051989;28;20937;-55
2022/11/02 08:48:04;;;;;;;9.53;3.37;;;18.60;57.80;;;;;;5051556;28;20923;-55
2022/11/02 08:50:29;;;;;;;6.30;2.90;;;18.70;57.70;;;;;;5052067;28;20442;-55
2022/11/02 08:52:55;;;;;;;6.30;2.30;;;18.70;57.10;;;;;;5051775;28;20419;-54
2022/11/02 08:55:21;;;;;;;5.60;2.50;;;18.70;56.60;;;;;;5051478;28;20245;-53
2022/11/02 08:57:48;;;;;;;6.90;2.67;;;18.80;56.30;;;;;;5052112;28;20201;-53
2022/11/02 09:00:15;;;;;;;6.13;2.67;;;18.80;56.30;;;;;;5051906;28;20287;-54
2022/11/02 09:02:41;;;;;;;8.40;2.50;;;18.90;56.40;;;;;;5052216;28;20427;-55
2022/11/02 09:05:07;;;;;;;9.70;2.47;;;18.80;56.20;;;;;;5048963;28;20423;-55
2022/11/02 09:07:33;;;;;;;3.83;2.57;;;18.70;56.90;;;;;;5051874;28;20220;-54
2022/11/02 09:09:58;;;;;;;5.03;2.50;;;18.70;57.40;;;;;;5051133;28;20832;-55
2022/11/02 09:12:24;;;;;;;5.60;2.57;;;18.80;57.50;;;;;;5051982;28;20271;-54
2022/11/02 09:14:49;;;;;;;4.97;2.40;;;18.80;57.50;;;;;;5050620;28;20196;-54
2022/11/02 09:17:15;;;;;;;8.63;2.53;;;18.80;57.00;;;;;;5042564;28;20232;-53
2022/11/02 09:19:41;;;;;;;6.63;2.50;;;18.90;56.60;;;;;;5033698;28;20244;-54
2022/11/02 09:22:06;;;;;;;3.43;2.47;;;19.10;56.70;;;;;;5051503;28;20674;-55
2022/11/02 09:24:32;;;;;;;8.90;2.90;;;19.10;55.70;;;;;;5050428;28;20211;-54
2022/11/02 09:26:58;;;;;;;4.60;2.77;;;19.20;55.70;;;;;;5051485;28;20682;-54
2022/11/02 09:29:23;;;;;;;8.03;2.53;;;19.20;55.60;;;;;;5050847;28;20234;-55
2022/11/02 09:31:49;;;;;;;6.00;2.70;;;19.30;55.30;;;;;;5049813;28;20553;-54
2022/11/02 09:34:15;;;;;;;7.93;2.80;;;19.30;55.00;;;;;;5050420;28;20192;-54
2022/11/02 09:36:40;;;;;;;8.23;2.93;;;19.40;54.80;;;;;;5051621;28;20185;-53
2022/11/02 09:39:07;;;;;;;6.67;2.57;;;19.30;54.90;;;;;;5050952;28;20423;-54
2022/11/02 09:41:41;;;;;;;6.70;2.60;;;19.20;55.30;;;;;;5051149;28;20674;-55
2022/11/02 09:44:54;;;;;;;4.77;2.57;;;19.20;55.40;;;;;;5050309;28;20957;-54
2022/11/02 09:47:21;;;;;;;2.60;2.00;;;19.10;55.80;;;;;;5045644;28;20491;-55
2022/11/02 09:49:48;;;;;;;4.10;2.60;;;19.20;56.20;;;;;;5049736;28;20535;-54
2022/11/02 09:52:33;;;;;;;4.17;2.20;;;19.40;56.00;;;;;;5051157;28;20472;-54
2022/11/02 09:55:03;;;;;;;3.10;2.20;;;19.40;55.40;;;;;;5050397;28;20487;-55
2022/11/02 09:57:32;;;;;;;6.33;2.20;;;19.50;55.20;;;;;;5049161;28;20442;-55
2022/11/02 09:59:58;;;;;;;6.90;2.20;;;19.60;55.10;;;;;;5037812;28;20444;-54
2022/11/02 10:03:00;;;;;;;9.83;2.30;;;19.50;54.80;;;;;;5051308;28;20785;-54
2022/11/02 10:05:38;;;;;;;5.80;2.93;;;19.60;54.80;;;;;;5051567;28;20444;-54
2022/11/02 10:08:25;;;;;;;3.90;1.90;;;19.50;55.00;;;;;;5050450;28;20478;-55
2022/11/02 10:11:33;;;;;;;6.27;2.10;;;19.60;54.80;;;;;;5051232;28;20459;-54
2022/11/02 10:14:11;;;;;;;6.40;2.00;;;19.70;54.60;;;;;;5050309;28;20430;-54
2022/11/02 10:16:44;;;;;;;6.27;1.80;;;19.70;54.40;;;;;;5047590;28;20774;-55
2022/11/02 10:19:14;;;;;;;4.20;2.10;;;19.70;54.50;;;;;;5041543;28;20439;-54
2022/11/02 10:21:42;;;;;;;3.07;2.03;;;19.80;54.20;;;;;;5051002;28;20461;-55
2022/11/02 10:24:42;;;;;;;6.80;2.50;;;19.80;53.90;;;;;;5048513;28;21280;-55
2022/11/02 10:27:21;;;;;;;4.30;1.73;;;19.90;54.10;;;;;;5050649;28;20501;-54
2022/11/02 10:29:58;;;;;;;2.93;1.60;;;20.00;54.30;;;;;;5044900;28;20432;-54
2022/11/02 10:32:24;;;;;;;4.63;1.97;;;20.00;54.70;;;;;;5044657;28;20449;-55
2022/11/02 10:34:51;;;;;;;5.40;2.40;;;20.10;54.10;;;;;;5049822;28;20851;-55
2022/11/02 10:37:33;;;;;;;6.17;2.23;;;20.10;53.40;;;;;;5050600;28;20193;-55
2022/11/02 10:40:07;;;;;;;10.73;1.63;;;20.10;53.30;;;;;;5050352;28;20480;-55
2022/11/02 10:42:42;;;;;;;2.93;1.87;;;20.10;53.30;;;;;;5051153;28;20979;-55
2022/11/02 10:45:27;;;;;;;7.80;1.93;;;20.00;52.70;;;;;;5049820;28;20488;-54
2022/11/02 10:48:11;;;;;;;3.77;1.77;;;20.00;52.60;;;;;;5050175;28;20482;-54
2022/11/02 10:51:14;;;;;;;5.87;2.57;;;19.90;53.10;;;;;;5049073;28;20470;-55
2022/11/02 10:53:44;;;;;;;6.73;2.40;;;19.90;53.00;;;;;;5049752;28;20438;-54
2022/11/02 10:56:28;;;;;;;5.90;2.47;;;20.00;52.40;;;;;;5050906;28;20431;-55
2022/11/02 10:58:58;;;;;;;5.03;1.90;;;20.10;52.20;;;;;;5050213;28;20415;-55
2022/11/02 11:01:25;;;;;;;6.70;1.80;;;20.00;53.00;;;;;;5051893;28;20522;-55
2022/11/02 11:04:02;;;;;;;6.37;1.73;;;20.00;53.20;;;;;;5053499;28;20419;-55
2022/11/02 11:06:40;;;;;;;3.10;1.50;;;20.10;53.00;;;;;;5054290;28;20798;-55
2022/11/02 11:09:24;;;;;;;5.23;1.80;;;20.10;52.30;;;;;;5053434;28;20462;-55
2022/11/02 11:12:00;;;;;;;4.53;1.57;;;20.00;52.60;;;;;;5054125;28;20418;-55
2022/11/02 11:14:28;;;;;;;3.10;1.60;;;19.90;51.90;;;;;;5053335;28;20514;-54
2022/11/02 11:16:57;;;;;;;8.83;2.10;;;20.00;51.60;;;;;;5048661;28;20436;-54
2022/11/02 11:19:33;;;;;;;5.23;2.47;;;19.80;51.60;;;;;;5044142;28;20813;-55
2022/11/02 11:21:59;;;;;;;4.10;1.60;;;19.80;52.00;;;;;;5053927;28;20829;-54
2022/11/02 11:24:28;;;;;;;5.60;1.77;;;19.90;51.90;;;;;;5052913;28;20433;-54
2022/11/02 11:27:11;;;;;;;5.37;1.70;;;19.90;51.70;;;;;;5054096;28;20447;-55
2022/11/02 11:29:39;;;;;;;5.93;1.70;;;20.00;51.70;;;;;;5053235;28;20769;-55
2022/11/02 11:32:16;;;;;;;4.77;1.60;;;19.80;51.40;;;;;;5053777;28;20427;-56
2022/11/02 11:34:44;;;;;;;5.33;1.97;;;19.90;51.60;;;;;;5052399;28;20930;-55
2022/11/02 11:37:12;;;;;;;4.67;1.67;;;20.00;51.80;;;;;;5053542;28;20459;-55
2022/11/02 11:39:41;;;;;;;6.83;2.00;;;20.10;51.90;;;;;;5052935;28;20979;-55
2022/11/02 11:42:21;;;;;;;4.40;1.80;;;20.10;52.00;;;;;;5053444;28;20427;-55
2022/11/02 11:44:59;;;;;;;7.73;2.33;;;20.20;52.00;;;;;;5050755;28;20485;-55
2022/11/02 11:47:32;;;;;;;4.67;1.77;;;20.20;52.10;;;;;;5053472;28;20566;-54
2022/11/02 11:50:01;;;;;;;5.17;1.77;;;20.20;52.50;;;;;;5052823;28;20431;-55
2022/11/02 11:52:30;;;;;;;5.07;1.70;;;20.30;51.80;;;;;;5053183;28;20437;-56
2022/11/02 11:54:58;;;;;;;10.20;1.67;;;20.30;51.20;;;;;;5052407;28;20481;-55
2022/11/02 11:57:28;;;;;;;4.00;1.73;;;20.40;51.20;;;;;;5053108;28;20458;-55
2022/11/02 11:59:57;;;;;;;4.73;1.97;;;20.50;51.60;;;;;;5052834;28;20805;-54
2022/11/02 12:02:36;;;;;;;8.40;2.47;;;20.70;51.20;;;;;;5053353;28;20442;-55
2022/11/02 12:05:22;;;;;;;6.73;2.00;;;20.90;50.30;;;;;;5052017;28;20430;-54
2022/11/02 12:07:59;;;;;;;5.23;1.63;;;21.20;50.10;;;;;;5052692;28;20834;-56
2022/11/02 12:10:25;;;;;;;5.57;1.90;;;21.30;49.50;;;;;;5053209;28;20794;-56
2022/11/02 12:13:16;;;;;;;4.30;1.77;;;21.50;49.70;;;;;;5050107;28;20435;-56
2022/11/02 12:16:05;;;;;;;5.23;1.60;;;21.70;49.30;;;;;;5052925;28;20189;-54
2022/11/02 12:18:50;;;;;;;5.87;1.60;;;21.60;48.60;;;;;;5051729;28;20887;-56
2022/11/02 12:21:33;;;;;;;6.23;1.87;;;21.80;48.70;;;;;;5052701;28;20447;-56
2022/11/02 12:24:08;;;;;;;6.23;2.70;;;22.00;48.50;;;;;;5052007;28;20435;-56
2022/11/02 12:27:05;;;;;;;3.93;1.70;;;22.00;46.40;;;;;;5052160;28;20462;-56
2022/11/02 12:29:59;;;;;;;4.10;1.70;;;21.60;47.50;;;;;;5052176;28;20812;-55
2022/11/02 12:32:40;;;;;;;3.90;1.47;;;21.80;47.80;;;;;;5047008;28;20436;-55
2022/11/02 12:35:30;;;;;;;9.73;2.10;;;21.80;48.30;;;;;;5051768;28;20796;-56
2022/11/02 12:37:55;;;;;;;4.97;2.00;;;22.10;47.80;;;;;;5050397;28;20435;-56
2022/11/02 12:40:21;;;;;;;6.10;1.97;;;22.20;47.10;;;;;;5052510;28;20431;-55
2022/11/02 12:42:55;;;;;;;4.80;2.13;;;22.40;48.00;;;;;;5051701;28;20192;-56
2022/11/02 12:45:48;;;;;;;4.80;2.57;;;22.50;47.90;;;;;;5052185;28;20425;-55
2022/11/02 12:48:32;;;;;;;5.23;1.93;;;22.60;47.90;;;;;;5051589;28;20584;-55
2022/11/02 12:51:09;;;;;;;7.13;1.53;;;22.70;47.70;;;;;;5052107;28;20826;-55
2022/11/02 12:53:44;;;;;;;3.77;1.77;;;23.00;47.00;;;;;;5051191;28;20427;-56
2022/11/02 12:56:35;;;;;;;5.00;2.10;;;23.30;46.70;;;;;;5052093;28;20941;-56
2022/11/02 12:59:01;;;;;;;8.13;2.03;;;23.50;46.50;;;;;;5044033;28;20799;-56
2022/11/02 13:01:41;;;;;;;4.47;1.70;;;23.60;45.60;;;;;;5052301;28;20423;-55
2022/11/02 13:04:18;;;;;;;3.77;1.70;;;23.70;45.20;;;;;;5049995;28;20246;-56
2022/11/02 13:06:47;;;;;;;7.00;1.87;;;23.60;45.40;;;;;;5051618;28;20430;-55
2022/11/02 13:09:23;;;;;;;8.30;2.67;;;23.60;46.20;;;;;;5051535;28;20426;-57
2022/11/02 13:12:12;;;;;;;5.30;1.97;;;23.80;45.90;;;;;;5051745;28;20433;-57
2022/11/02 13:14:56;;;;;;;5.97;2.00;;;23.80;44.00;;;;;;5050741;28;20449;-55
2022/11/02 13:17:40;;;;;;;5.10;2.00;;;23.80;43.50;;;;;;5042274;28;20454;-56
2022/11/02 13:20:17;;;;;;;4.70;1.97;;;23.80;44.00;;;;;;5049793;28;20431;-55